Colorado AWOS List, Phone Numbers, Maps

USA |  
| Search AWOS

Rocky Mountain States: Montana | Wyoming | Colorado | New Mexico

Complete weather reports: Colorado

Legend: KFNL = METAR available Follow your local AWOS on AV Mobile = METAR available on AV Mobile
Station Colorado Location Frequency Phone
KAKOFAA ID AKO, ASOS, KAKO 041853Z AUTO 34008KT 310V010 10SM SCT095 29/07 A3003 RMK AO2 SLP107 T02890072 Follow KAKO on AV Mobile COLORADO PLAINS REGIONAL 135.475 970-345-2320
KALSFAA ID ALS, ASOS, KALS 041852Z AUTO VRB05KT 10SM FEW120 24/07 A3030 Follow KALS on AV Mobile SAN LUIS VALLEY REGIONAL 135.175 719-589-5669
KASEFAA ID ASE, ASOS, KASE 041853Z 34011G22KT 10SM SCT090 23/07 A3033 Follow KASE on AV Mobile ASPEN-PITKIN COUNTY AIRPORT 120.400 970-925-9168
KBKFFAA ID BKF, KBKF 041858Z 22009KT 10SM FEW070 SCT110 SCT220 28/06 A3008 Follow KBKF on AV Mobile Aurora, Buckley Air Force Base Airport
K7BMFAA ID 7BM, AWOS-3, K7BM 041934Z AUTO 35004G25KT 10SM SCT070 OVC090 18/01 A3045 RMK AO2 Follow K7BM on AV Mobile Cottonwood Pass 132.050 303-512-4919
KBDUFAA ID BDU, AWOS-3, KBDU 041939Z AUTO 29014G23KT 10SM CLR 31/01 A3003 RMK AO2 Follow KBDU on AV Mobile Boulder Municipal Airport 118.825 303-541-9540
KAEJFAA ID AEJ, AWOS-3, KAEJ 041935Z AUTO 24015G22KT 10SM BKN110 24/01 A3030 RMK AO2 T02420012 Follow KAEJ on AV Mobile Central Colorado Regional Airport 132.925 719-395-2599
KITRFAA ID ITR, ASOS, KITR 041853Z AUTO 31011KT 10SM CLR 29/14 A2998 RMK AO2 SLP094 T02940144 Follow KITR on AV Mobile Kit Carson County Airport 135.225 719-346-7036
K1V6FAA ID 1V6, AWOS-3, K1V6 041930Z AUTO 25016G24KT 10SM SCT110 33/07 A3005 RMK AO2 Follow K1V6 on AV Mobile CANON CITY 120.025
KAFFFAA ID AFF, KAFF 041858Z 03009KT 10SM CLR 28/04 A3013 RMK AO2A SLP111 T02780042 Follow KAFF on AV Mobile Air Force Academy
KCOSFAA ID COS, ASOS, KCOS 041854Z 09010KT 10SM SCT100 28/03 A3012 Follow KCOS on AV Mobile COLORADO SPRINGS MUNI 125.000 719-637-9696
KFLYFAA ID FLY, AWOS-3PT, KFLY 041933Z AUTO 04005KT 10SM CLR 27/06 A3018 RMK AO2 T02700059 Follow KFLY on AV Mobile Meadowlake Airport, Peyton, CO 118.450 719-683-5371
KCCUFAA ID CCU, AWOS-3, KCCU 041934Z AUTO 27035G42KT 10SM CLR 15/M02 A3058 RMK AO2 Follow KCCU on AV Mobile Copper Mountain, Red Cliff Pass 118.075 970-968-1715
KCEZFAA ID CEZ, ASOS, KCEZ 041853Z AUTO 23004KT 10SM CLR 28/09 A3022 RMK AO2 SLP149 T02780089 Follow KCEZ on AV Mobile CORTEZ MONTEZUMA COUNTY AIRPORT 135.625 970-564-0193
KCAGFAA ID CAG, ASOS, KCAG 041253Z AUTO 25003KT 10SM CLR 09/07 A3021 Follow KCAG on AV Mobile CRAIG MOFFAT AIRPORT 135.425 970-824-2373
KRCVFAA ID RCV, AWOS-3PT, KRCV 041930Z AUTO 07004KT 10SM BKN120 25/06 A3033 RMK AO2 T02450063 Follow KRCV on AV Mobile DEL NORTE 118.275 719-657-9017
KAJZFAA ID AJZ, AWOS-3, KAJZ 041935Z AUTO 19007KT 10SM CLR 32/08 A3015 RMK AO2 T03230083 Follow KAJZ on AV Mobile Blake Field Airport 134.000 970-874-3251
KDNRICAO ID KDNR Denver / Stapleton International, Co.
KAPAFAA ID APA, ASOS, KAPA 041853Z COR 00000KT 10SM FEW110 FEW150 FEW220 27/06 A3010 RMK AO2 SLP119 T02720056 Follow KAPA on AV Mobile DENVER CENTENNIAL AIRPORT 120.300 303-706-9098
KDENFAA ID DEN, ASOS, KDEN 041853Z 31008G19KT 10SM SCT100 SCT150 SCT220 29/05 A3006 Follow KDEN on AV Mobile DENVER INTERNATIONAL AIRPORT 125.600 303-342-0838
KFTGFAA ID FTG, AWOS-3, KFTG 041853Z 26009G23KT 50SM FEW120 SCT200 29/03 A3007 Follow KFTG on AV Mobile Front Range Airport 119.025 303-261-9104
KBJCFAA ID BJC, AWOS-3, KBJC 041849Z 20006KT 40SM SCT120 30/05 A3007 Follow KBJC on AV Mobile Rocky Mountain Metro Airport 126.250 720-887-8067
K4V5ICAO ID K4V5 Durango Aviation Weather Reporting Station
KDROFAA ID DRO, ASOS, KDRO 041853Z AUTO 28012G24KT 10SM BKN110 27/02 A3025 RMK AO2 SLP155 T02720017 Follow KDRO on AV Mobile DURANGO-LA PLATA COUNTY AIRPORT 120.625 970-259-3579
KEGEFAA ID EGE, AWOS-3, KEGE 041850Z 22020G26KT 10SM FEW100 27/04 A3024 Follow KEGE on AV Mobile Eagle County Regional 135.575 970-524-7386
CO90FAA ID CO90, ASOS, K88M 041945Z AUTO 19011KT 10SM 28/06 A2989 Follow  on AV Mobile USAF Academy Bullseye Aux Airstrip 118.325 719-683-3346
K0COFAA ID 0CO, AWOS-3, K0CO 041933Z AUTO 30038G49KT 10SM CLR 10/04 A3056 RMK AO2 Follow K0CO on AV Mobile EMPIRE 134.325
KEIKFAA ID EIK, AWOS-3, KEIK 041935Z AUTO 26012G17KT 200V300 10SM CLR 32/00 A3002 RMK AO2 T03150002 Follow KEIK on AV Mobile Erie Municipal Airport 133.825 303-604-4339
KFCSFAA ID FCS, KFCS 041858Z AUTO 15009KT 10SM CLR 30/06 A3009 RMK AO2 SLP129 T02970061 Follow KFCS on AV Mobile Fort Carson
KFCLICAO ID KFCL Fort Collins Supplementary Aviation Weather Reporting Station
KFNLFAA ID FNL, AWOS-3, KFNL 041935Z AUTO 26007KT 10SM CLR 29/08 A3001 RMK AO1 Follow KFNL on AV Mobile Fort Collins/Loveland, Fort Collins-Loveland Municipal Airport 135.075 970-669-9187
KFMMFAA ID FMM, AWOS-3, KFMM 041935Z AUTO 30011G14KT 10SM BKN110 29/05 A3002 RMK AO2 T02920048 Follow KFMM on AV Mobile Fort Morgan Municipal Airport 132.950 970-867-4823
KGNBFAA ID GNB, AWOS-3PT Granby-Grand County Airport 119.925 970-887-1803
KGJTFAA ID GJT, ASOS, KGJT 041853Z 28007KT 250V320 10SM CLR 29/08 A3014 Follow KGJT on AV Mobile GRAND JUNCTION WALKER FIELD 118.550 970-245-7881
KGXYFAA ID GXY, AWOS-3, KGXY 041935Z AUTO 03009KT 10SM FEW100 28/08 A3003 RMK AO1 Follow KGXY on AV Mobile Greeley, Greeley-Weld County Airport 135.175 970-352-3511
K2V9ICAO ID K2V9 Gunnison Aviation Weather Reporting Station
KGUCFAA ID GUC, AWOS-3, KGUC 041935Z AUTO 30015G27KT 10SM CLR 24/02 A3035 RMK AO1 Follow KGUC on AV Mobile Gunnison, Gunnison-Crested Butte Regional Airport 135.075 970-641-3240
KHDNFAA ID HDN, AWOS-3, KHDN 041935Z AUTO 28019G29KT 10SM FEW075 24/06 A3024 RMK AO1 Follow KHDN on AV Mobile Hayden, Yampa Valley Airport 119.275 970-276-3690
KHEQFAA ID HEQ, AWOS-3, KHEQ 041935Z AUTO 03009KT 10SM CLR 23/16 A3001 RMK AO2 LTG DSNT NE THRU S Follow KHEQ on AV Mobile Holyoke Airport 119.275 970-854-3679
K20VFAA ID 20V, AWOS-3, K20V 041936Z AUTO 30013G23KT 10SM CLR 25/M02 A3029 RMK AO2 Follow K20V on AV Mobile Kremmling, Mc Elroy Airfield 118.425 970-724-9659
KLHXFAA ID LHX, ASOS, KLHX 041853Z AUTO 30013G18KT 10SM CLR 34/07 A2997 RMK AO2 SLP082 T03390072 Follow KLHX on AV Mobile LA JUNTA MUNICIPAL AIRPORT 135.525 719-384-5961
KVTPFAA ID VTP, AWOS-3, KVTP 041934Z AUTO 10SM BKN060 OVC075 17/02 A3050 RMK AO2 Follow KVTP on AV Mobile La Veta Mountain, La Veta Pass 119.925 719-587-3120
KLAAFAA ID LAA, ASOS, KLAA 041853Z AUTO 29007KT 9SM CLR 32/14 A2994 RMK AO2 SLP085 T03170139 TSNO Follow KLAA on AV Mobile LAMAR MUNICIPAL AIRPORT 135.625 719-336-3854
KLXVFAA ID LXV, ASOS, KLXV 041853Z AUTO 29013G19KT 250V320 10SM BKN070 17/M01 A3045 Follow KLXV on AV Mobile LEADVILLE LAKE CO 118.375 719-486-2735
KLICFAA ID LIC, ASOS, KLIC 041855Z AUTO 00000KT 10SM FEW080 28/07 A3008 RMK AO2 SLP109 T02830067 Follow KLIC on AV Mobile LIMON MUNICIPAL AIRPORT 121.125 719-775-0515
KLMOFAA ID LMO, AWOS-3, KLMO 041934Z AUTO 25003G14KT 10SM CLR 32/04 A3003 RMK AO2 T03200037 PWINO Follow KLMO on AV Mobile Vance Brand Airport 120.000 303-684-7545
KEEOFAA ID EEO, ASOS, KEEO 041853Z AUTO 30013G20KT 10SM CLR 27/05 A3024 RMK AO2 SLP156 T02720050 Follow KEEO on AV Mobile MEEKER AIRPORT 135.525 970-878-5036
KMYPFAA ID MYP, AWOS-3, KMYP 041935Z AUTO 27028G34KT 10SM SCT070 11/04 A3072 RMK AO2 Follow KMYP on AV Mobile Salida Mountain, Monarch Pass 124.175 719-539-4436
KMTJFAA ID MTJ, ASOS, KMTJ 041853Z AUTO 34005KT 10SM CLR 27/09 A3022 RMK AO2 SLP150 T02720089 Follow KMTJ on AV Mobile MONTROSE REGIONAL AIRPORT 135.225 970-249-1534
KMNHFAA ID MNH, AWOS-3, KMNH 041934Z AUTO 11007KT 10SM CLR 25/04 A3019 RMK AO2 Follow KMNH on AV Mobile Elbert Mountain, Monument Pass 134.375 303-648-3479
KCRVICAO ID KCRV Nederland Mountain, Corona Pass
KAIBFAA ID AIB, AWOS-3, KAIB 041935Z AUTO 27003KT 10SM CLR 28/07 A3026 RMK AO2 Follow KAIB on AV Mobile Hopkins Field Airport 132.525 970-864-2325
KPSOFAA ID PSO, AWOS-3, KPSO 041935Z AUTO 26009G18KT 230V290 10SM SCT090 SCT110 26/02 A3033 RMK AO2 T02640016 Follow KPSO on AV Mobile Stevens Field Airport 127.175 970-731-0365
KPEFICAO ID KPEF Peterson Air Force Base
KPUXICAO ID KPUX Pueblo NEXRAD
KPUBFAA ID PUB, ASOS, KPUB 041853Z AUTO 28015G19KT 10SM CLR 34/06 A3002 Follow KPUB on AV Mobile PUEBLO MEMORIAL AIRPORT 125.250 719-948-2803
4V0FAA ID 4V0, AWOS-3PT, K88M 041945Z AUTO 19011KT 10SM 28/06 A2989 Follow  on AV Mobile RANGELY 119.025 970-675-2339
K1V1ICAO ID K1V1 Rifle Aviation Weather Reporting Station
KRILFAA ID RIL, ASOS, KRIL 041853Z AUTO VRB06KT 10SM CLR 28/07 A3017 RMK AO2 SLP144 T02780067 Follow KRIL on AV Mobile RIFLE GARFIELD COUNTY RGNL 135.275 970-625-2206
K04VFAA ID 04V, AWOS-3, K04V 041935Z AUTO 33011G28KT 10SM CLR 25/03 A3032 RMK AO2 Follow K04V on AV Mobile Saguache, Saguache Municipal Airport 118.625 719-655-2229
KS29ICAO ID KS29 Salida
KANKFAA ID ANK, AWOS-3, KANK 041935Z AUTO 24015G20KT 10SM CLR 27/04 A3034 RMK AO1 T02700037 Follow KANK on AV Mobile Harriet Alexander Field Airport 133.850 719-539-5268
KSPDICAO ID KSPD, KSPD 041856Z AUTO 30005KT 33/09 A2999 RMK AO1 SLP086 T03280094 Follow KSPD on AV Mobile SPRINGFIELD COMANCHE NATL
KSBSFAA ID SBS, AWOS-3, KSBS 041935Z AUTO RMK AO1 Follow KSBS on AV Mobile Steamboat Springs 118.325 970-879-7794
KSTKFAA ID STK, AWOS-3, KSTK 041925Z AUTO 05012G20KT 10SM OVC095 24/15 A2999 RMK AO2 LTG DSNT E Follow KSTK on AV Mobile Sterling Municipal Airport 118.525 970-526-3009
K5SMFAA ID 5SM, AWOS-3, K5SM 041934Z AUTO 00000KT 10SM SCT049 BKN065 BKN075 16/06 A3059 RMK AO2 Follow K5SM on AV Mobile Sunlight 126.075 970-384-3380
KTEXFAA ID TEX, AWOS-3, KTEX 041935Z AUTO 27013KT 10SM SCT065 SCT095 22/01 A3048 RMK AO2 T02170009 Follow KTEX on AV Mobile Telluride, Telluride Regional Airport 118.325 970-728-1534
KTADFAA ID TAD, ASOS, KTAD 041854Z AUTO 33014KT 10SM CLR 32/07 A3010 RMK AO2 SLP104 T03170067 Follow KTAD on AV Mobile Trinidad, Perry Stokes Airport 119.025 719-845-1156
K33VFAA ID 33V, AWOS-3, K33V 041935Z AUTO 25016G25KT 10SM BKN080 21/05 A3030 RMK AO2 Follow K33V on AV Mobile WALDEN 118.625 970-723-4513
4V1FAA ID 4V1, AWOS-3, K88M 041945Z AUTO 19011KT 10SM 28/06 A2989 Follow  on AV Mobile Spanish Peaks Airfield 123.600 719-738-1053
K4BMFAA ID 4BM, AWOS-3, K4BM 031735Z AUTO 22005KT 10SM OVC060 12/03 A3057 RMK AO2 Follow K4BM on AV Mobile Wilkerson Pass 132.3 303-512-4418
KC96ICAO ID KC96 Winter Park Resort
KCPWFAA ID CPW, AWOS-3, KCPW 281834Z AUTO 00000KT RMK AO2 PWINO Follow KCPW on AV Mobile Pagosa Springs, Wolf Creek Pass 121.125 970-264-2180
K2V5FAA ID 2V5, AWOS-3, K2V5 041935Z AUTO 04023G30KT 10SM TS SCT041 BKN060 OVC080 25/17 A2998 RMK AO2 LTG DSNT N THRU SE T02520169 Follow K2V5 on AV Mobile Wray Municipal Airport 118.250 970-332-5930
2V6FAA ID 2V6, AWOS-3, K88M 041945Z AUTO 19011KT 10SM 28/06 A2989 Follow  on AV Mobile YUMA 135.375 970-848-3007

Click on the AV Mobile icon AV Mobile icon by any station to follow that AWOS feed on AirportView.net Mobile.

Legend: Commercial service airport with AWOS Commercial Airport AWOSNon-Commercial service airport with AWOS Non-Commercial Airport AWOS
Airport AWOS - Click symbol for weather report Fort Morgan Municipal Airport KFMM 041935Z AUTO 30011G14KT 10SM BKN110 29/05 A3002 RMK AO2 T02920048 Hopkins Field Airport KAIB 041935Z AUTO 27003KT 10SM CLR 28/07 A3026 RMK AO2 Telluride, Telluride Regional Airport KTEX 041935Z AUTO 27013KT 10SM SCT065 SCT095 22/01 A3048 RMK AO2 T02170009 Greeley, Greeley-Weld County Airport KGXY 041935Z AUTO 03009KT 10SM FEW100 28/08 A3003 RMK AO1 Front Range Airport KFTG 041853Z 26009G23KT 50SM FEW120 SCT200 29/03 A3007 Rocky Mountain Metro Airport KBJC 041849Z 20006KT 40SM SCT120 30/05 A3007 DENVER CENTENNIAL AIRPORT KAPA 041853Z COR 00000KT 10SM FEW110 FEW150 FEW220 27/06 A3010 RMK AO2 SLP119 T02720056 DENVER INTERNATIONAL AIRPORT KDEN 041853Z 31008G19KT 10SM SCT100 SCT150 SCT220 29/05 A3006 Fort Collins/Loveland, Fort Collins-Loveland Municipal Airport KFNL 041935Z AUTO 26007KT 10SM CLR 29/08 A3001 RMK AO1 Boulder Municipal Airport KBDU 041939Z AUTO 29014G23KT 10SM CLR 31/01 A3003 RMK AO2 Vance Brand Airport KLMO 041934Z AUTO 25003G14KT 10SM CLR 32/04 A3003 RMK AO2 T03200037 PWINO Sterling Municipal Airport KSTK 041925Z AUTO 05012G20KT 10SM OVC095 24/15 A2999 RMK AO2 LTG DSNT E Holyoke Airport KHEQ 041935Z AUTO 03009KT 10SM CLR 23/16 A3001 RMK AO2 LTG DSNT NE THRU S COLORADO PLAINS REGIONAL KAKO 041853Z AUTO 34008KT 310V010 10SM SCT095 29/07 A3003 RMK AO2 SLP107 T02890072 Kit Carson County Airport KITR 041853Z AUTO 31011KT 10SM CLR 29/14 A2998 RMK AO2 SLP094 T02940144 LIMON MUNICIPAL AIRPORT KLIC 041855Z AUTO 00000KT 10SM FEW080 28/07 A3008 RMK AO2 SLP109 T02830067 COLORADO SPRINGS MUNI KCOS 041854Z 09010KT 10SM SCT100 28/03 A3012 LAMAR MUNICIPAL AIRPORT KLAA 041853Z AUTO 29007KT 9SM CLR 32/14 A2994 RMK AO2 SLP085 T03170139 TSNO LA JUNTA MUNICIPAL AIRPORT KLHX 041853Z AUTO 30013G18KT 10SM CLR 34/07 A2997 RMK AO2 SLP082 T03390072 Trinidad, Perry Stokes Airport KTAD 041854Z AUTO 33014KT 10SM CLR 32/07 A3010 RMK AO2 SLP104 T03170067 PUEBLO MEMORIAL AIRPORT KPUB 041853Z AUTO 28015G19KT 10SM CLR 34/06 A3002 CANON CITY 1V6 SAN LUIS VALLEY REGIONAL KALS 041852Z AUTO VRB05KT 10SM FEW120 24/07 A3030 Saguache, Saguache Municipal Airport K04V 041935Z AUTO 33011G28KT 10SM CLR 25/03 A3032 RMK AO2 Granby-Grand County Airport KGNB WALDEN 33V Steamboat Springs KSBS 041935Z AUTO RMK AO1 Hayden, Yampa Valley Airport KHDN 041935Z AUTO 28019G29KT 10SM FEW075 24/06 A3024 RMK AO1 Kremmling, Mc Elroy Airfield K20V 041936Z AUTO 30013G23KT 10SM CLR 25/M02 A3029 RMK AO2 LEADVILLE LAKE CO KLXV 041853Z AUTO 29013G19KT 250V320 10SM BKN070 17/M01 A3045 Eagle County Regional KEGE 041850Z 22020G26KT 10SM FEW100 27/04 A3024 CRAIG MOFFAT AIRPORT KCAG 041253Z AUTO 25003KT 10SM CLR 09/07 A3021 MEEKER AIRPORT KEEO 041853Z AUTO 30013G20KT 10SM CLR 27/05 A3024 RMK AO2 SLP156 T02720050 ASPEN-PITKIN COUNTY AIRPORT KASE 041853Z 34011G22KT 10SM SCT090 23/07 A3033 Gunnison, Gunnison-Crested Butte Regional Airport KGUC 041935Z AUTO 30015G27KT 10SM CLR 24/02 A3035 RMK AO1 DURANGO-LA PLATA COUNTY AIRPORT  KDRO 041853Z AUTO 28012G24KT 10SM BKN110 27/02 A3025 RMK AO2 SLP155 T02720017 Stevens Field Airport KPSO 041935Z AUTO 26009G18KT 230V290 10SM SCT090 SCT110 26/02 A3033 RMK AO2 T02640016 CORTEZ MONTEZUMA COUNTY AIRPORT  KCEZ 041853Z AUTO 23004KT 10SM CLR 28/09 A3022 RMK AO2 SLP149 T02780089 MONTROSE REGIONAL AIRPORT KMTJ 041853Z AUTO 34005KT 10SM CLR 27/09 A3022 RMK AO2 SLP150 T02720089 RIFLE GARFIELD COUNTY RGNL KRIL 041853Z AUTO VRB06KT 10SM CLR 28/07 A3017 RMK AO2 SLP144 T02780067 GRAND JUNCTION WALKER FIELD KGJT 041853Z 28007KT 250V320 10SM CLR 29/08 A3014 Blake Field Airport KAJZ 041935Z AUTO 19007KT 10SM CLR 32/08 A3015 RMK AO2 T03230083 Central Colorado Regional Airport KAEJ 041935Z AUTO 24015G22KT 10SM BKN110 24/01 A3030 RMK AO2 T02420012 Harriet Alexander Field Airport KANK 041935Z AUTO 24015G20KT 10SM CLR 27/04 A3034 RMK AO1 T02700037 Erie Municipal Airport KEIK 041935Z AUTO 26012G17KT 200V300 10SM CLR 32/00 A3002 RMK AO2 T03150002 Wray Municipal Airport K2V5 041935Z AUTO 04023G30KT 10SM TS SCT041 BKN060 OVC080 25/17 A2998 RMK AO2 LTG DSNT N THRU SE T02520169
Legend: High Mountain AWOS Mountain Pass AWOS
Mountain Pass AWOS - Click symbol for weather report Pagosa Springs, Wolf Creek Pass KCPW 281834Z AUTO 00000KT RMK AO2 PWINO Saguache, Saguache Municipal Airport K04V 041935Z AUTO 33011G28KT 10SM CLR 25/03 A3032 RMK AO2 Kremmling, Mc Elroy Airfield K20V 041936Z AUTO 30013G23KT 10SM CLR 25/M02 A3029 RMK AO2 La Veta Mountain, La Veta Pass KVTP 041934Z AUTO 10SM BKN060 OVC075 17/02 A3050 RMK AO2 Salida Mountain, Monarch Pass KMYP 041935Z AUTO 27028G34KT 10SM SCT070 11/04 A3072 RMK AO2 Cottonwood Pass K7BM 041934Z AUTO 35004G25KT 10SM SCT070 OVC090 18/01 A3045 RMK AO2 Elbert Mountain, Monument Pass KMNH 041934Z AUTO 11007KT 10SM CLR 25/04 A3019 RMK AO2 Wilkerson Pass K4BM 031735Z AUTO 22005KT 10SM OVC060 12/03 A3057 RMK AO2 Copper Mountain, Red Cliff Pass KCCU 041934Z AUTO 27035G42KT 10SM CLR 15/M02 A3058 RMK AO2 EMPIRE 0CO Sunlight K5SM 041934Z AUTO 00000KT 10SM SCT049 BKN065 BKN075 16/06 A3059 RMK AO2
Garmin aera 796 $1999 at Avionics Specialists LLC
Bose A20 Aviation Headsets $995 at Avionics Specialists LLC